Time;durP1;ratioP1;P1;durP2;ratioP2;P2;SDS_P1;SDS_P2;PMS_P1;PMS_P2;Temp;Humidity;BMP_temperature;BMP_pressure;BME280_temperature;BME280_humidity;BME280_pressure;Samples;Min_cycle;Max_cycle;Signal;HPM_P1;HPM_P2
2024/03/08 00:00:26;;;;;;;28.30;13.45;;;-2.10;96.90;;;;;;5057692;28;20016;-45
2024/03/08 00:02:52;;;;;;;23.15;11.43;;;-2.10;97.20;;;;;;5057665;28;20093;-45
2024/03/08 00:05:18;;;;;;;29.27;13.52;;;-2.10;97.30;;;;;;5053649;28;20027;-46
2024/03/08 00:07:44;;;;;;;23.10;11.45;;;-2.20;97.40;;;;;;5057553;28;20035;-46
2024/03/08 00:10:11;;;;;;;22.70;11.55;;;-2.20;97.80;;;;;;5057481;28;20654;-46
2024/03/08 00:12:38;;;;;;;28.75;11.82;;;-2.30;98.00;;;;;;5059322;28;20472;-44
2024/03/08 00:15:04;;;;;;;22.13;10.80;;;-2.30;97.70;;;;;;5057285;28;20021;-44
2024/03/08 00:17:29;;;;;;;23.17;11.00;;;-2.30;98.50;;;;;;5057428;28;20555;-45
2024/03/08 00:19:54;;;;;;;27.38;13.13;;;-2.40;98.50;;;;;;5056990;28;20032;-44
2024/03/08 00:22:21;;;;;;;24.83;11.20;;;-2.40;98.30;;;;;;5057166;28;20033;-49
2024/03/08 00:24:49;;;;;;;23.38;11.10;;;-2.40;98.80;;;;;;5056645;28;20032;-46
2024/03/08 00:27:15;;;;;;;26.50;11.80;;;-2.40;98.90;;;;;;5055539;28;20090;-45
2024/03/08 00:29:41;;;;;;;26.40;12.45;;;-2.40;98.70;;;;;;5055412;28;20028;-45
2024/03/08 00:32:07;;;;;;;27.98;11.75;;;-2.40;98.70;;;;;;5056738;28;20036;-44
2024/03/08 00:34:36;;;;;;;32.65;14.63;;;-2.50;99.30;;;;;;5057372;28;20466;-44
2024/03/08 00:37:02;;;;;;;37.13;16.13;;;-2.40;98.90;;;;;;5052946;28;20258;-47
2024/03/08 00:39:27;;;;;;;32.70;14.63;;;-2.40;99.80;;;;;;5052089;28;20032;-45
2024/03/08 00:41:53;;;;;;;34.38;15.63;;;-2.40;99.90;;;;;;5057948;28;20035;-44
2024/03/08 00:44:18;;;;;;;36.53;14.73;;;-2.50;99.90;;;;;;5060936;28;20395;-44
2024/03/08 00:46:44;;;;;;;28.67;15.35;;;-2.50;99.90;;;;;;5060342;28;20064;-45
2024/03/08 00:49:09;;;;;;;36.00;15.65;;;-2.40;99.90;;;;;;5059238;28;20025;-45
2024/03/08 00:51:36;;;;;;;35.00;16.05;;;-2.40;99.90;;;;;;5058224;28;20029;-47
2024/03/08 00:54:01;;;;;;;32.78;15.20;;;-2.50;99.90;;;;;;5059098;28;20016;-44
2024/03/08 00:56:27;;;;;;;30.63;14.88;;;-2.40;99.90;;;;;;5059202;28;20035;-44
2024/03/08 00:58:53;;;;;;;28.70;12.80;;;-2.40;99.90;;;;;;5061111;28;20059;-45
2024/03/08 01:01:19;;;;;;;31.60;14.35;;;-2.40;99.90;;;;;;5058853;28;20056;-45
2024/03/08 01:03:44;;;;;;;29.30;13.88;;;-2.50;99.90;;;;;;5057978;28;20085;-44
2024/03/08 01:06:11;;;;;;;29.00;13.77;;;-2.50;99.90;;;;;;5059216;28;20437;-44
2024/03/08 01:08:38;;;;;;;28.75;13.18;;;-2.60;99.90;;;;;;5058256;28;20025;-44
2024/03/08 01:11:04;;;;;;;28.85;11.23;;;-2.50;99.90;;;;;;5058885;28;20028;-51
2024/03/08 01:13:30;;;;;;;26.08;11.80;;;-2.60;99.90;;;;;;5059380;28;20017;-44
2024/03/08 01:15:56;;;;;;;25.98;11.93;;;-2.60;99.90;;;;;;5060589;28;20551;-46
2024/03/08 01:18:21;;;;;;;24.52;12.00;;;-2.60;99.90;;;;;;5059018;28;20016;-45
2024/03/08 01:20:47;;;;;;;25.73;12.80;;;-2.60;99.90;;;;;;5059040;28;20081;-44
2024/03/08 01:23:13;;;;;;;26.92;12.30;;;-2.70;99.90;;;;;;5057531;28;20017;-46
2024/03/08 01:25:39;;;;;;;29.27;12.73;;;-2.70;99.90;;;;;;5058727;28;20063;-44
2024/03/08 01:28:05;;;;;;;28.92;13.77;;;-2.70;99.90;;;;;;5060614;28;20086;-45
2024/03/08 01:30:32;;;;;;;28.08;12.68;;;-2.70;99.90;;;;;;5060610;28;20031;-46
2024/03/08 01:32:58;;;;;;;24.52;11.63;;;-2.70;99.90;;;;;;5057378;28;20021;-44
2024/03/08 01:35:23;;;;;;;22.40;12.10;;;-2.80;99.90;;;;;;5059071;28;20029;-45
2024/03/08 01:37:49;;;;;;;24.85;11.23;;;-2.80;99.90;;;;;;5058617;28;20039;-44
2024/03/08 01:40:16;;;;;;;26.52;12.48;;;-2.80;99.90;;;;;;5053230;28;20027;-47
2024/03/08 01:42:42;;;;;;;26.25;13.57;;;-2.80;99.90;;;;;;5058877;28;20111;-49
2024/03/08 01:45:08;;;;;;;26.63;12.52;;;-2.80;99.90;;;;;;5058879;28;20167;-45
2024/03/08 01:47:34;;;;;;;32.30;13.65;;;-2.80;99.90;;;;;;5060033;28;20570;-52
2024/03/08 01:50:02;;;;;;;28.40;12.90;;;-2.80;99.90;;;;;;5057771;28;20502;-46
2024/03/08 01:52:31;;;;;;;31.13;14.30;;;-2.80;99.90;;;;;;5058937;28;20082;-45
2024/03/08 01:55:00;;;;;;;32.67;14.45;;;-2.80;99.90;;;;;;5058775;28;20040;-46
2024/03/08 01:57:26;;;;;;;34.97;16.05;;;-2.80;99.90;;;;;;5054412;28;20090;-44
2024/03/08 01:59:54;;;;;;;34.58;15.05;;;-2.70;99.90;;;;;;5057273;28;20052;-44
2024/03/08 02:02:20;;;;;;;40.30;16.35;;;-2.70;99.90;;;;;;5058581;28;20070;-46
2024/03/08 02:04:46;;;;;;;30.30;13.60;;;-2.70;99.90;;;;;;5058576;28;20028;-44
2024/03/08 02:07:11;;;;;;;42.15;18.38;;;-2.70;99.90;;;;;;5060443;28;20100;-48
2024/03/08 02:09:37;;;;;;;38.70;18.08;;;-2.70;99.90;;;;;;5058390;28;20675;-44
2024/03/08 02:12:02;;;;;;;41.15;17.85;;;-2.70;99.90;;;;;;5058326;28;20094;-47
2024/03/08 02:14:28;;;;;;;38.88;17.70;;;-2.60;99.90;;;;;;5058506;28;20028;-46
2024/03/08 02:16:54;;;;;;;33.67;14.45;;;-2.60;99.90;;;;;;5058365;28;20025;-44
2024/03/08 02:19:19;;;;;;;41.10;16.45;;;-2.60;99.90;;;;;;5053260;28;20077;-44
2024/03/08 02:21:47;;;;;;;30.65;13.80;;;-2.60;99.90;;;;;;5058759;28;20028;-44
2024/03/08 02:24:13;;;;;;;32.55;14.32;;;-2.60;99.90;;;;;;5059817;28;20023;-48
2024/03/08 02:26:38;;;;;;;34.70;14.32;;;-2.60;99.90;;;;;;5062075;28;20036;-45
2024/03/08 02:29:05;;;;;;;35.55;14.90;;;-2.70;99.90;;;;;;5061861;28;20082;-47
2024/03/08 02:31:30;;;;;;;28.80;13.15;;;-2.70;99.90;;;;;;5061620;28;20375;-44
2024/03/08 02:33:56;;;;;;;31.55;14.18;;;-2.70;99.90;;;;;;5061920;28;20538;-45
2024/03/08 02:36:21;;;;;;;31.58;13.43;;;-2.70;99.90;;;;;;5057732;28;20107;-45
2024/03/08 02:38:47;;;;;;;29.45;13.98;;;-2.70;99.90;;;;;;5057719;28;20033;-48
2024/03/08 02:41:12;;;;;;;27.20;12.50;;;-2.80;99.90;;;;;;5061827;28;20024;-45
2024/03/08 02:43:38;;;;;;;35.17;15.18;;;-2.80;99.90;;;;;;5061502;28;20077;-45
2024/03/08 02:46:05;;;;;;;28.35;13.48;;;-2.80;99.90;;;;;;5061680;28;20107;-45
2024/03/08 02:48:30;;;;;;;29.80;14.23;;;-2.80;99.90;;;;;;5061643;28;20027;-47
2024/03/08 02:50:56;;;;;;;38.78;18.27;;;-2.80;99.90;;;;;;5061450;28;20024;-45
2024/03/08 02:53:22;;;;;;;35.63;16.15;;;-2.80;99.90;;;;;;5063536;28;20397;-44
2024/03/08 02:55:47;;;;;;;42.85;17.98;;;-2.80;99.90;;;;;;5060343;28;20390;-44
2024/03/08 02:58:14;;;;;;;44.38;18.25;;;-2.80;99.90;;;;;;5061157;28;20137;-46
2024/03/08 03:00:40;;;;;;;45.08;19.55;;;-2.80;99.90;;;;;;5055365;28;20025;-43
2024/03/08 03:03:06;;;;;;;50.75;19.08;;;-2.70;99.90;;;;;;5058026;28;20063;-47
2024/03/08 03:05:32;;;;;;;41.30;17.38;;;-2.70;99.90;;;;;;5054247;28;20048;-46
2024/03/08 03:07:58;;;;;;;40.80;19.52;;;-2.70;99.90;;;;;;5060493;28;20055;-44
2024/03/08 03:10:24;;;;;;;41.38;18.23;;;-2.60;99.90;;;;;;5061365;28;20539;-45
2024/03/08 03:12:50;;;;;;;40.38;18.00;;;-2.60;99.90;;;;;;5058120;28;20037;-45
2024/03/08 03:15:16;;;;;;;50.47;20.65;;;-2.60;99.90;;;;;;5055738;28;20048;-44
2024/03/08 03:17:46;;;;;;;38.78;17.70;;;-2.60;99.90;;;;;;5056804;28;20024;-45
2024/03/08 03:20:22;;;;;;;42.25;17.25;;;-2.60;99.90;;;;;;5055269;28;20016;-44
2024/03/08 03:22:51;;;;;;;40.15;17.65;;;-2.70;99.90;;;;;;5059517;28;20042;-46
2024/03/08 03:25:23;;;;;;;38.25;17.33;;;-2.70;99.90;;;;;;5057047;28;20040;-45
2024/03/08 03:27:49;;;;;;;41.20;18.05;;;-2.70;99.90;;;;;;5052773;28;20041;-46
2024/03/08 03:30:20;;;;;;;46.55;18.42;;;-2.70;99.90;;;;;;5054671;28;20094;-46
2024/03/08 03:32:47;;;;;;;37.22;17.83;;;-2.70;99.90;;;;;;5058864;28;20108;-46
2024/03/08 03:35:15;;;;;;;44.70;20.02;;;-2.70;99.90;;;;;;5056560;28;20020;-44
2024/03/08 03:37:42;;;;;;;42.33;20.27;;;-2.70;99.90;;;;;;5056480;28;20035;-46
2024/03/08 03:40:08;;;;;;;51.13;20.30;;;-2.60;99.90;;;;;;5057430;28;20028;-44
2024/03/08 03:42:34;;;;;;;50.53;21.42;;;-2.60;99.90;;;;;;5060301;28;20056;-47
2024/03/08 03:44:59;;;;;;;43.22;19.85;;;-2.60;99.90;;;;;;5060461;28;20802;-46
2024/03/08 03:47:26;;;;;;;40.35;17.48;;;-2.60;99.90;;;;;;5059443;28;20339;-44
2024/03/08 03:49:53;;;;;;;45.70;19.00;;;-2.70;99.90;;;;;;5060166;28;20035;-46
2024/03/08 03:52:19;;;;;;;37.65;16.77;;;-2.70;99.90;;;;;;5060906;28;20744;-45
2024/03/08 03:54:44;;;;;;;40.97;18.00;;;-2.70;99.90;;;;;;5060607;28;20059;-44
2024/03/08 03:57:09;;;;;;;35.42;17.15;;;-2.70;99.90;;;;;;5057349;28;20077;-44
2024/03/08 03:59:35;;;;;;;46.33;18.30;;;-2.70;99.90;;;;;;5059229;28;20032;-46
2024/03/08 04:02:01;;;;;;;38.38;17.35;;;-2.70;99.90;;;;;;5059140;28;20125;-45
2024/03/08 04:04:26;;;;;;;33.78;15.55;;;-2.70;99.90;;;;;;5059774;28;20021;-44
2024/03/08 04:06:52;;;;;;;43.50;17.52;;;-2.90;99.90;;;;;;5059943;28;20027;-47
2024/03/08 04:09:22;;;;;;;43.38;18.52;;;-2.90;99.90;;;;;;5060255;28;20027;-50
2024/03/08 04:11:48;;;;;;;49.08;20.67;;;-2.90;99.90;;;;;;5059878;28;20043;-47
2024/03/08 04:14:13;;;;;;;41.22;18.92;;;-2.90;99.90;;;;;;5061775;28;20017;-45
2024/03/08 04:16:39;;;;;;;38.95;18.02;;;-2.90;99.90;;;;;;5059702;28;20513;-45
2024/03/08 04:19:04;;;;;;;38.60;17.92;;;-2.90;99.90;;;;;;5055364;28;20381;-44
2024/03/08 04:21:30;;;;;;;46.42;19.45;;;-2.90;99.90;;;;;;5053467;28;20029;-44
2024/03/08 04:23:56;;;;;;;39.30;18.45;;;-2.90;99.90;;;;;;5059839;28;20647;-44
2024/03/08 04:26:21;;;;;;;40.67;18.67;;;-2.90;99.90;;;;;;5060039;28;20025;-47
2024/03/08 04:28:47;;;;;;;46.25;19.30;;;-2.90;99.90;;;;;;5061143;28;20039;-46
2024/03/08 04:31:12;;;;;;;47.35;20.42;;;-2.90;99.90;;;;;;5059801;28;20611;-47
2024/03/08 04:33:38;;;;;;;48.17;20.02;;;-2.90;99.90;;;;;;5058052;28;20078;-46
2024/03/08 04:36:04;;;;;;;46.78;17.38;;;-2.90;99.90;;;;;;5059545;28;20028;-46
2024/03/08 04:38:30;;;;;;;42.72;19.23;;;-2.90;99.90;;;;;;5059065;28;20029;-46
2024/03/08 04:40:57;;;;;;;58.20;23.65;;;-2.90;99.90;;;;;;5056864;28;20139;-46
2024/03/08 04:43:25;;;;;;;49.42;21.20;;;-2.90;99.90;;;;;;5060154;28;20024;-44
2024/03/08 04:45:51;;;;;;;46.30;20.42;;;-2.90;99.90;;;;;;5057454;28;20024;-47
2024/03/08 04:48:16;;;;;;;50.70;20.52;;;-2.90;99.90;;;;;;5059189;28;20086;-44
2024/03/08 04:50:42;;;;;;;39.00;17.75;;;-2.90;99.90;;;;;;5054988;28;20039;-48
2024/03/08 04:53:08;;;;;;;41.83;20.60;;;-2.90;99.90;;;;;;5059237;28;20098;-46
2024/03/08 04:55:34;;;;;;;46.60;20.67;;;-3.00;99.90;;;;;;5059518;28;20034;-44
2024/03/08 04:57:59;;;;;;;49.00;19.40;;;-3.00;99.90;;;;;;5061066;28;20037;-44
2024/03/08 05:00:25;;;;;;;54.97;21.80;;;-3.00;99.90;;;;;;5056937;28;20036;-44
2024/03/08 05:02:53;;;;;;;45.90;22.58;;;-2.90;99.90;;;;;;5057194;28;20021;-44
2024/03/08 05:05:18;;;;;;;42.10;19.92;;;-2.90;99.90;;;;;;5059030;28;20036;-44
2024/03/08 05:07:45;;;;;;;49.58;21.60;;;-2.90;99.90;;;;;;5059284;28;20032;-46
2024/03/08 05:10:11;;;;;;;49.25;21.27;;;-2.80;99.90;;;;;;5054593;28;20111;-45
2024/03/08 05:12:38;;;;;;;49.20;20.25;;;-2.80;99.90;;;;;;5058796;28;20194;-47
2024/03/08 05:15:05;;;;;;;53.22;20.17;;;-2.80;99.90;;;;;;5060723;28;20514;-49
2024/03/08 05:17:30;;;;;;;46.17;20.63;;;-2.80;99.90;;;;;;5056875;28;20089;-44
2024/03/08 05:19:56;;;;;;;37.40;18.20;;;-2.90;99.90;;;;;;5058202;28;20025;-46
2024/03/08 05:22:22;;;;;;;40.22;17.95;;;-3.00;99.90;;;;;;5058148;28;20029;-47
2024/03/08 05:24:47;;;;;;;42.70;21.30;;;-3.00;99.90;;;;;;5058261;28;20032;-49
2024/03/08 05:27:13;;;;;;;38.75;17.60;;;-3.10;99.90;;;;;;5058426;28;20100;-44
2024/03/08 05:29:38;;;;;;;37.22;18.05;;;-3.10;99.90;;;;;;5060602;28;20032;-44
2024/03/08 05:32:04;;;;;;;62.63;24.75;;;-3.10;99.90;;;;;;5058597;28;20052;-48
2024/03/08 05:34:30;;;;;;;42.55;19.10;;;-3.10;99.90;;;;;;5059121;28;20494;-49
2024/03/08 05:36:55;;;;;;;42.10;19.92;;;-3.10;99.90;;;;;;5058624;28;20025;-48
2024/03/08 05:39:21;;;;;;;44.03;19.58;;;-3.10;99.90;;;;;;5055969;28;20498;-44
2024/03/08 05:41:47;;;;;;;37.65;18.25;;;-3.00;99.90;;;;;;5058944;28;20067;-45
2024/03/08 05:44:13;;;;;;;39.03;17.63;;;-3.00;99.90;;;;;;5058785;28;20036;-45
2024/03/08 05:46:39;;;;;;;42.10;18.80;;;-3.00;99.90;;;;;;5060784;28;20060;-44
2024/03/08 05:49:05;;;;;;;48.83;20.67;;;-2.90;99.90;;;;;;5060431;28;20029;-44
2024/03/08 05:51:35;;;;;;;44.40;19.42;;;-2.90;99.90;;;;;;5056780;28;20035;-44
2024/03/08 05:54:11;;;;;;;62.75;27.52;;;-2.80;99.90;;;;;;5059916;28;20022;-45
2024/03/08 05:56:37;;;;;;;;;;;-2.70;99.90;;;;;;5063158;28;20020;-47
2024/03/08 05:59:03;;;;;;;46.03;21.48;;;-2.60;99.90;;;;;;5062422;28;20270;-44
2024/03/08 06:01:29;;;;;;;55.67;25.05;;;-2.60;99.90;;;;;;5062363;28;20498;-45
2024/03/08 06:03:56;;;;;;;57.83;24.65;;;-2.50;99.90;;;;;;5062454;28;20563;-45
2024/03/08 06:06:23;;;;;;;54.50;25.35;;;-2.40;99.90;;;;;;5061370;28;20025;-45
2024/03/08 06:08:49;;;;;;;70.00;28.00;;;-2.30;99.90;;;;;;5063713;28;20052;-44
2024/03/08 06:11:17;;;;;;;72.53;29.08;;;-2.20;99.90;;;;;;5054785;28;20487;-46
2024/03/08 06:13:42;;;;;;;77.43;31.08;;;-2.10;99.90;;;;;;5058133;28;20027;-46
2024/03/08 06:16:08;;;;;;;57.08;25.70;;;-2.00;99.90;;;;;;5053626;28;20033;-46
2024/03/08 06:18:36;;;;;;;69.50;28.33;;;-1.80;99.90;;;;;;5062238;28;20131;-46
2024/03/08 06:21:05;;;;;;;64.80;28.48;;;-1.60;99.90;;;;;;5056904;28;20029;-44
2024/03/08 06:23:38;;;;;;;61.78;28.42;;;-1.20;99.90;;;;;;5051908;28;20032;-46
2024/03/08 06:26:04;;;;;;;60.38;27.23;;;-0.80;99.90;;;;;;5060944;28;20032;-45
2024/03/08 06:28:29;;;;;;;68.25;28.63;;;-0.30;99.90;;;;;;5060854;28;20040;-44
2024/03/08 06:30:55;;;;;;;69.97;26.38;;;0.10;99.90;;;;;;5060414;28;20040;-44
2024/03/08 06:33:20;;;;;;;64.70;27.02;;;0.60;99.90;;;;;;5063798;28;20028;-44
2024/03/08 06:35:46;;;;;;;59.40;26.25;;;1.00;99.90;;;;;;5061732;28;20394;-45
2024/03/08 06:38:11;;;;;;;66.70;31.05;;;1.50;99.90;;;;;;5061144;28;20042;-46
2024/03/08 06:40:37;;;;;;;57.38;26.27;;;1.80;99.90;;;;;;5055765;28;20498;-45
2024/03/08 06:43:05;;;;;;;57.35;25.55;;;2.10;99.90;;;;;;5060022;28;20112;-48
2024/03/08 06:45:31;;;;;;;50.72;24.38;;;2.40;99.90;;;;;;5061112;28;20032;-46
2024/03/08 06:47:57;;;;;;;57.15;27.20;;;2.80;99.90;;;;;;5063042;28;20025;-44
2024/03/08 06:50:22;;;;;;;48.30;25.52;;;3.10;99.90;;;;;;5060880;28;20028;-45
2024/03/08 06:52:53;;;;;;;57.97;27.35;;;3.40;99.90;;;;;;5061020;28;20451;-45
2024/03/08 06:55:19;;;;;;;52.65;25.70;;;3.70;99.90;;;;;;5061146;28;20017;-49
2024/03/08 06:57:45;;;;;;;45.95;23.05;;;3.90;99.90;;;;;;5061088;28;20024;-46
2024/03/08 07:00:13;;;;;;;48.58;24.67;;;4.20;99.90;;;;;;5060349;28;20405;-45
2024/03/08 07:02:41;;;;;;;47.78;24.63;;;4.50;99.90;;;;;;5060022;28;20505;-48
2024/03/08 07:05:10;;;;;;;45.60;23.42;;;4.90;98.30;;;;;;5055860;28;20082;-46
2024/03/08 07:07:35;;;;;;;49.28;23.73;;;5.20;97.90;;;;;;5061174;28;20081;-47
2024/03/08 07:10:01;;;;;;;40.60;21.50;;;5.50;97.70;;;;;;5061096;28;20464;-48
2024/03/08 07:12:26;;;;;;;41.33;21.98;;;5.80;95.30;;;;;;5056761;28;20456;-47
2024/03/08 07:14:53;;;;;;;42.10;21.10;;;6.00;96.20;;;;;;5061151;28;20386;-49
2024/03/08 07:17:18;;;;;;;33.63;19.88;;;6.20;93.00;;;;;;5056930;28;20104;-49
2024/03/08 07:19:45;;;;;;;37.33;20.63;;;6.50;92.80;;;;;;5060085;28;20817;-47
2024/03/08 07:22:11;;;;;;;45.55;25.00;;;6.70;93.60;;;;;;5060546;28;20513;-49
2024/03/08 07:24:52;;;;;;;47.33;23.25;;;6.80;90.50;;;;;;5062693;28;20025;-48
2024/03/08 07:27:18;;;;;;;38.90;22.20;;;7.10;91.10;;;;;;5056847;28;20031;-45
2024/03/08 07:29:43;;;;;;;41.92;22.85;;;7.40;89.70;;;;;;5060584;28;20016;-46
2024/03/08 07:32:20;;;;;;;35.10;19.95;;;7.60;90.20;;;;;;5059085;28;20040;-47
2024/03/08 07:34:50;;;;;;;41.80;21.95;;;7.80;88.10;;;;;;5054936;28;20028;-47
2024/03/08 07:37:16;;;;;;;35.75;21.52;;;7.80;85.90;;;;;;5055223;28;20024;-46
2024/03/08 07:39:43;;;;;;;40.83;23.38;;;8.00;85.60;;;;;;5052727;28;20050;-45
2024/03/08 07:42:09;;;;;;;41.47;25.08;;;8.00;81.40;;;;;;5053068;28;20025;-49
2024/03/08 07:44:35;;;;;;;40.20;24.00;;;8.10;80.40;;;;;;5055890;28;20035;-46
2024/03/08 07:47:00;;;;;;;41.20;24.20;;;8.10;75.70;;;;;;5056196;28;20033;-47
2024/03/08 07:49:26;;;;;;;38.08;22.02;;;8.20;73.70;;;;;;5053109;28;20025;-45
2024/03/08 07:51:51;;;;;;;34.90;19.95;;;8.20;71.80;;;;;;5057804;28;20033;-54
2024/03/08 07:54:17;;;;;;;39.70;23.42;;;8.20;72.70;;;;;;5053937;28;20498;-48
2024/03/08 07:56:43;;;;;;;35.30;21.58;;;8.30;71.50;;;;;;5060851;28;20028;-47
2024/03/08 07:59:08;;;;;;;34.30;20.08;;;8.60;71.10;;;;;;5059867;28;20029;-46
2024/03/08 08:01:34;;;;;;;35.47;21.08;;;8.90;68.40;;;;;;5059890;28;20444;-44
2024/03/08 08:04:01;;;;;;;33.38;19.98;;;8.90;67.20;;;;;;5059823;28;20020;-46
2024/03/08 08:06:27;;;;;;;33.92;19.85;;;9.00;69.90;;;;;;5059779;28;20021;-46
2024/03/08 08:08:52;;;;;;;34.30;20.33;;;9.10;70.40;;;;;;5059787;28;20123;-44
2024/03/08 08:11:18;;;;;;;37.90;21.73;;;9.30;69.30;;;;;;5055134;28;20258;-46
2024/03/08 08:13:44;;;;;;;39.97;23.08;;;9.40;67.90;;;;;;5057709;28;20044;-45
2024/03/08 08:16:10;;;;;;;36.70;23.15;;;9.60;65.60;;;;;;5055709;28;20021;-44
2024/03/08 08:18:36;;;;;;;38.22;22.35;;;9.50;62.60;;;;;;5056137;28;20025;-45
2024/03/08 08:21:02;;;;;;;36.33;21.27;;;9.50;61.80;;;;;;5061406;28;20398;-44
2024/03/08 08:23:29;;;;;;;34.17;20.27;;;9.60;61.40;;;;;;5058591;28;20021;-44
2024/03/08 08:25:55;;;;;;;33.25;21.02;;;9.60;61.80;;;;;;5058666;28;20021;-44
2024/03/08 08:28:21;;;;;;;37.35;22.05;;;9.70;58.90;;;;;;5059179;28;20021;-44
2024/03/08 08:30:46;;;;;;;34.05;21.42;;;9.80;59.20;;;;;;5055420;28;20050;-46
2024/03/08 08:33:12;;;;;;;33.10;21.52;;;9.90;57.90;;;;;;5059402;28;20032;-44
2024/03/08 08:35:38;;;;;;;41.50;23.60;;;9.80;55.40;;;;;;5059323;28;20028;-47
2024/03/08 08:38:07;;;;;;;38.13;22.83;;;9.70;53.80;;;;;;5057556;28;20597;-45
2024/03/08 08:40:33;;;;;;;39.08;23.42;;;9.60;53.80;;;;;;5052552;28;20036;-46
2024/03/08 08:42:59;;;;;;;38.08;22.65;;;9.50;52.20;;;;;;5059406;28;20029;-44
2024/03/08 08:45:25;;;;;;;37.67;23.35;;;9.30;49.90;;;;;;5059024;28;20016;-44
2024/03/08 08:47:51;;;;;;;39.95;24.02;;;9.30;52.00;;;;;;5060830;28;20048;-44
2024/03/08 08:50:22;;;;;;;38.42;24.38;;;9.30;49.80;;;;;;5059233;28;20029;-44
2024/03/08 08:52:48;;;;;;;33.88;20.58;;;9.30;50.90;;;;;;5058665;28;20093;-44
2024/03/08 08:55:14;;;;;;;40.47;23.42;;;9.00;50.10;;;;;;5054903;28;20029;-44
2024/03/08 08:57:43;;;;;;;44.42;24.13;;;9.20;52.10;;;;;;5054449;28;20051;-45
2024/03/08 09:00:14;;;;;;;37.47;22.17;;;9.20;50.40;;;;;;5054695;28;20532;-44
2024/03/08 09:02:40;;;;;;;37.10;22.52;;;9.20;49.20;;;;;;5052256;28;20033;-44
2024/03/08 09:05:07;;;;;;;40.13;24.05;;;9.10;50.20;;;;;;5053236;28;20024;-44
2024/03/08 09:07:33;;;;;;;34.20;21.02;;;9.20;49.00;;;;;;5056694;28;20031;-44
2024/03/08 09:09:59;;;;;;;34.72;20.80;;;9.20;48.50;;;;;;5047843;28;20037;-44
2024/03/08 09:12:25;;;;;;;35.05;20.95;;;9.20;48.40;;;;;;5052269;28;20033;-45
2024/03/08 09:14:51;;;;;;;35.13;22.58;;;9.20;47.70;;;;;;5051038;28;20158;-44
2024/03/08 09:17:22;;;;;;;34.45;20.50;;;9.20;46.10;;;;;;5053544;28;20017;-46
2024/03/08 09:19:48;;;;;;;31.30;20.42;;;9.10;46.40;;;;;;5054557;28;20028;-44
2024/03/08 09:22:13;;;;;;;35.00;20.27;;;9.10;47.70;;;;;;5054355;28;20025;-44
2024/03/08 09:24:40;;;;;;;30.52;17.70;;;9.20;48.40;;;;;;5054774;28;20024;-45
2024/03/08 09:27:05;;;;;;;30.80;17.98;;;9.30;49.00;;;;;;5050264;28;20394;-44
2024/03/08 09:29:31;;;;;;;30.58;17.85;;;9.40;48.50;;;;;;5058876;28;20485;-44
2024/03/08 09:31:56;;;;;;;31.38;18.98;;;9.70;48.20;;;;;;5063308;28;20040;-45
2024/03/08 09:34:22;;;;;;;32.75;20.17;;;9.70;45.10;;;;;;5064537;28;20172;-44
2024/03/08 09:36:47;;;;;;;29.27;18.95;;;9.50;43.50;;;;;;5056790;28;20513;-44
2024/03/08 09:39:17;;;;;;;32.65;18.15;;;9.30;44.10;;;;;;5053352;28;20021;-46
2024/03/08 09:41:43;;;;;;;29.67;18.40;;;9.40;45.80;;;;;;5062685;28;20036;-44
2024/03/08 09:44:09;;;;;;;33.40;18.83;;;9.40;45.10;;;;;;5056746;28;20025;-44
2024/03/08 09:46:34;;;;;;;33.60;20.27;;;9.40;43.90;;;;;;5064897;28;20086;-42
2024/03/08 09:49:01;;;;;;;33.97;19.80;;;9.40;43.50;;;;;;5066911;28;20028;-44
2024/03/08 09:51:28;;;;;;;27.98;18.17;;;9.40;42.10;;;;;;5065005;28;20051;-45
2024/03/08 09:53:54;;;;;;;31.55;18.58;;;9.40;42.40;;;;;;5065029;28;20078;-44
2024/03/08 09:56:22;;;;;;;29.50;19.10;;;9.40;43.10;;;;;;5064832;28;20028;-44
2024/03/08 10:01:31;;;;;;;27.58;18.25;;;9.50;40.80;;;;;;5064996;28;20503;-44
2024/03/08 10:03:57;;;;;;;28.30;17.92;;;9.50;41.00;;;;;;5064676;28;20103;-44
2024/03/08 10:06:24;;;;;;;35.15;20.08;;;9.40;42.00;;;;;;5065042;28;20525;-44
2024/03/08 10:08:51;;;;;;;33.15;19.48;;;9.50;39.20;;;;;;5064334;28;20377;-45
2024/03/08 10:11:17;;;;;;;28.30;17.75;;;9.20;39.30;;;;;;5064324;28;20095;-44
2024/03/08 10:13:46;;;;;;;27.40;17.38;;;9.10;41.10;;;;;;5066646;28;20567;-43
2024/03/08 10:16:12;;;;;;;32.20;19.67;;;9.00;41.00;;;;;;5062790;28;20024;-44
2024/03/08 10:18:37;;;;;;;28.42;18.35;;;9.00;40.60;;;;;;5064570;28;20100;-44
2024/03/08 10:21:04;;;;;;;34.28;19.88;;;8.90;40.80;;;;;;5064834;28;20032;-45
2024/03/08 10:23:30;;;;;;;29.30;18.60;;;9.00;41.80;;;;;;5064444;28;20405;-43
2024/03/08 10:25:58;;;;;;;30.95;17.90;;;9.10;41.50;;;;;;5063454;28;20039;-44
2024/03/08 10:28:24;;;;;;;32.17;17.42;;;8.90;39.40;;;;;;5064197;28;20405;-46
2024/03/08 10:30:50;;;;;;;27.63;17.10;;;8.80;39.70;;;;;;5064610;28;20025;-45
2024/03/08 10:33:15;;;;;;;34.58;18.98;;;8.60;38.90;;;;;;5062569;28;20031;-44
2024/03/08 10:35:41;;;;;;;36.15;19.42;;;8.40;39.40;;;;;;5064389;28;20032;-44
2024/03/08 10:38:13;;;;;;;31.83;17.08;;;8.30;39.50;;;;;;5064740;28;20021;-44
2024/03/08 10:40:39;;;;;;;34.08;17.70;;;8.10;40.00;;;;;;5056917;28;20459;-44
2024/03/08 10:43:11;;;;;;;37.30;20.27;;;8.00;40.90;;;;;;5060762;28;20020;-44
2024/03/08 10:45:41;;;;;;;35.50;19.00;;;7.90;41.40;;;;;;5061009;28;20059;-44
2024/03/08 10:48:38;;;;;;;37.78;19.25;;;7.80;40.70;;;;;;5061111;28;20086;-44
2024/03/08 10:51:04;;;;;;;33.10;18.75;;;7.60;41.20;;;;;;5058683;28;20045;-44
2024/03/08 10:53:30;;;;;;;33.58;18.20;;;7.40;41.30;;;;;;5057390;28;20174;-44
2024/03/08 10:55:57;;;;;;;36.13;19.10;;;7.40;41.60;;;;;;5060905;28;20024;-46
2024/03/08 10:58:27;;;;;;;31.05;16.55;;;7.30;42.10;;;;;;5062813;28;20035;-44
2024/03/08 11:00:54;;;;;;;31.10;17.08;;;7.30;41.80;;;;;;5063320;28;20113;-44
2024/03/08 11:03:45;;;;;;;30.90;17.88;;;7.30;41.60;;;;;;5057107;28;20066;-44
2024/03/08 11:06:22;;;;;;;31.48;17.30;;;7.30;41.50;;;;;;5059474;28;20112;-47
2024/03/08 11:08:50;;;;;;;29.88;16.65;;;7.30;41.20;;;;;;5057465;28;20605;-43
2024/03/08 11:11:34;;;;;;;36.90;18.05;;;7.30;40.90;;;;;;5059990;28;20085;-47
2024/03/08 11:14:01;;;;;;;35.58;17.23;;;7.20;40.50;;;;;;5061791;28;20253;-43
2024/03/08 11:16:27;;;;;;;30.35;16.90;;;7.20;41.10;;;;;;5054800;28;20025;-46
2024/03/08 11:19:04;;;;;;;34.33;18.42;;;7.20;41.30;;;;;;5060448;28;20363;-45
2024/03/08 11:21:33;;;;;;;30.15;16.67;;;7.20;40.70;;;;;;5057532;28;20043;-44
2024/03/08 11:24:08;;;;;;;31.17;17.13;;;7.20;41.20;;;;;;5057927;28;20028;-43
2024/03/08 11:26:35;;;;;;;31.73;16.30;;;7.20;40.70;;;;;;5058648;28;20024;-44
2024/03/08 11:29:35;;;;;;;36.28;18.42;;;7.30;41.20;;;;;;5056859;28;20028;-43
2024/03/08 11:32:21;;;;;;;32.00;17.40;;;7.30;40.70;;;;;;5062481;28;20452;-44
2024/03/08 11:34:49;;;;;;;33.20;17.08;;;7.20;40.30;;;;;;5058427;28;20580;-44
2024/03/08 11:37:17;;;;;;;34.90;17.83;;;7.20;40.60;;;;;;5060208;28;20017;-44
2024/03/08 11:39:50;;;;;;;32.83;17.17;;;7.30;40.90;;;;;;5057423;28;20028;-44
2024/03/08 11:42:19;;;;;;;34.30;18.90;;;7.30;41.00;;;;;;5054565;28;20044;-44
2024/03/08 11:44:47;;;;;;;31.00;18.15;;;7.40;40.90;;;;;;5057534;28;20056;-44
2024/03/08 11:47:14;;;;;;;32.70;17.83;;;7.40;41.20;;;;;;5051740;28;20070;-45
2024/03/08 11:49:44;;;;;;;30.30;18.33;;;7.40;41.10;;;;;;5057674;28;20032;-44
2024/03/08 11:52:12;;;;;;;33.92;18.13;;;7.30;41.10;;;;;;5061634;28;20037;-45
2024/03/08 11:54:38;;;;;;;32.72;17.15;;;7.30;41.20;;;;;;5057454;28;20036;-48
2024/03/08 11:57:04;;;;;;;31.88;17.08;;;7.30;41.30;;;;;;5056502;28;20073;-45
2024/03/08 11:59:30;;;;;;;31.63;17.52;;;7.40;42.70;;;;;;5055314;28;20036;-44
2024/03/08 12:02:04;;;;;;;30.83;17.40;;;7.40;41.60;;;;;;5059687;28;20031;-45
2024/03/08 12:04:30;;;;;;;35.90;19.00;;;7.40;42.20;;;;;;5059532;28;20028;-47
2024/03/08 12:06:59;;;;;;;37.00;19.60;;;7.50;42.00;;;;;;5056062;28;20031;-43
2024/03/08 12:09:25;;;;;;;30.58;18.77;;;7.40;42.30;;;;;;5059827;28;20017;-45
2024/03/08 12:11:51;;;;;;;31.63;17.58;;;7.50;42.90;;;;;;5059618;28;20766;-44
2024/03/08 12:14:17;;;;;;;39.50;20.23;;;7.60;42.90;;;;;;5055800;28;20025;-44
2024/03/08 12:16:43;;;;;;;34.42;18.77;;;7.70;42.40;;;;;;5061507;28;20486;-48
2024/03/08 12:19:10;;;;;;;33.28;18.35;;;7.70;41.80;;;;;;5059795;28;20039;-45
2024/03/08 12:21:36;;;;;;;34.13;18.60;;;7.70;41.70;;;;;;5057620;28;20032;-45
2024/03/08 12:24:09;;;;;;;32.35;18.02;;;7.60;41.70;;;;;;5056912;28;20008;-45
2024/03/08 12:26:38;;;;;;;31.63;18.52;;;7.50;41.70;;;;;;5059229;28;20086;-45
2024/03/08 12:29:22;;;;;;;32.17;17.45;;;7.50;42.20;;;;;;5057887;28;20115;-45
2024/03/08 12:31:50;;;;;;;32.85;18.00;;;7.60;42.00;;;;;;5057298;28;20028;-44
2024/03/08 12:34:16;;;;;;;32.60;18.17;;;7.60;42.00;;;;;;5058641;28;20039;-45